createdAt,value
2019-05-10T00:00:56.432Z,25.52
2019-05-10T00:02:48.393Z,27.75
2019-05-10T00:04:40.669Z,27.85
2019-05-10T00:06:33.433Z,25.90
2019-05-10T00:08:26.488Z,30.72
2019-05-10T00:10:00.052Z,28.70
2019-05-10T00:11:49.309Z,29.75
2019-05-10T00:13:25.581Z,27.17
2019-05-10T00:14:59.993Z,26.45
2019-05-10T00:16:34.423Z,33.05
2019-05-10T00:18:09.050Z,27.35
2019-05-10T00:19:43.268Z,25.77
2019-05-10T00:21:17.685Z,30.15
2019-05-10T00:22:51.961Z,34.60
2019-05-10T00:24:26.908Z,30.92
2019-05-10T00:26:01.125Z,34.15
2019-05-10T00:27:35.598Z,31.75
2019-05-10T00:29:09.821Z,30.02
2019-05-10T00:30:44.860Z,28.25
2019-05-10T00:32:19.088Z,31.37
2019-05-10T00:33:53.553Z,30.52
2019-05-10T00:35:29.304Z,27.95
2019-05-10T00:37:04.285Z,24.92
2019-05-10T00:38:38.501Z,25.50
2019-05-10T00:40:13.136Z,27.60
2019-05-10T00:41:47.445Z,24.37
2019-05-10T00:43:22.113Z,29.90
2019-05-10T00:44:56.406Z,28.70
2019-05-10T00:46:30.870Z,30.95
2019-05-10T00:48:05.137Z,28.65
2019-05-10T00:49:39.864Z,33.15
2019-05-10T00:51:14.157Z,28.90
2019-05-10T00:52:48.612Z,27.70
2019-05-10T00:54:22.840Z,24.12
2019-05-10T00:55:57.720Z,27.40
2019-05-10T00:57:31.986Z,27.50
2019-05-10T00:59:06.384Z,25.20
2019-05-10T01:00:40.782Z,31.52
2019-05-10T01:02:15.717Z,29.15
2019-05-10T01:03:49.921Z,25.85
2019-05-10T01:05:24.320Z,26.65
2019-05-10T01:06:58.539Z,26.65
2019-05-10T01:08:33.547Z,27.27
2019-05-10T01:10:09.555Z,24.70
2019-05-10T01:11:43.996Z,26.90
2019-05-10T01:13:18.295Z,27.32
2019-05-10T01:14:53.141Z,25.05
2019-05-10T01:16:27.564Z,26.35
2019-05-10T01:18:02.010Z,27.30
2019-05-10T01:19:36.312Z,28.32
2019-05-10T01:21:11.001Z,28.30
2019-05-10T01:22:45.325Z,28.32
2019-05-10T01:24:19.727Z,26.52
2019-05-10T01:25:54.032Z,27.00
2019-05-10T01:27:28.993Z,25.32
2019-05-10T01:29:03.857Z,28.07
2019-05-10T01:30:38.264Z,27.25
2019-05-10T01:32:12.688Z,27.52
2019-05-10T01:33:47.432Z,29.27
2019-05-10T01:35:21.652Z,27.73
2019-05-10T01:36:56.109Z,29.57
2019-05-10T01:38:30.329Z,27.62
2019-05-10T01:40:07.862Z,29.60
2019-05-10T01:41:42.088Z,29.85
2019-05-10T01:43:16.488Z,27.67
2019-05-10T01:44:50.724Z,30.08
2019-05-10T01:46:25.824Z,29.18
2019-05-10T01:48:00.044Z,29.30
2019-05-10T01:49:34.452Z,29.55
2019-05-10T01:51:08.671Z,26.48
2019-05-10T01:52:43.473Z,29.50
2019-05-10T01:54:17.685Z,26.62
2019-05-10T01:55:53.047Z,28.10
2019-05-10T01:57:27.484Z,28.40
2019-05-10T01:59:02.455Z,26.97
2019-05-10T02:00:36.698Z,30.05
2019-05-10T02:02:11.090Z,28.60
2019-05-10T02:03:45.370Z,27.93
2019-05-10T02:05:20.726Z,28.50
2019-05-10T02:06:54.944Z,27.75
2019-05-10T02:08:29.365Z,29.90
2019-05-10T02:10:06.804Z,27.58
2019-05-10T02:11:41.524Z,27.55
2019-05-10T02:13:15.861Z,29.00
2019-05-10T02:14:50.269Z,32.17
2019-05-10T02:16:24.492Z,30.65
2019-05-10T02:17:59.506Z,35.60
2019-05-10T02:19:33.778Z,31.12
2019-05-10T02:21:08.266Z,31.80
2019-05-10T02:22:42.561Z,34.23
2019-05-10T02:24:17.477Z,31.90
2019-05-10T02:26:07.236Z,32.00
2019-05-10T02:27:27.843Z,33.98
2019-05-10T02:29:02.065Z,31.77
2019-05-10T02:30:36.884Z,34.35
2019-05-10T02:32:11.111Z,36.33
2019-05-10T02:33:45.569Z,29.77
2019-05-10T02:35:19.841Z,29.72
2019-05-10T02:36:54.422Z,36.05
2019-05-10T02:38:28.644Z,35.83
2019-05-10T02:40:03.184Z,32.38
2019-05-10T02:41:37.407Z,32.03
2019-05-10T02:43:12.277Z,32.00
2019-05-10T02:44:46.511Z,31.42
2019-05-10T02:46:20.950Z,32.05
2019-05-10T02:47:55.173Z,32.40
2019-05-10T02:49:29.839Z,28.73
2019-05-10T02:51:04.125Z,29.72
2019-05-10T02:52:38.586Z,30.95
2019-05-10T02:54:12.862Z,31.45
2019-05-10T02:55:49.534Z,28.62
2019-05-10T02:57:23.873Z,29.25
2019-05-10T02:58:59.434Z,33.28
2019-05-10T03:00:36.924Z,28.80
2019-05-10T03:02:13.119Z,31.60
2019-05-10T03:03:50.124Z,33.63
2019-05-10T03:05:27.617Z,37.53
2019-05-10T03:07:06.387Z,28.57
2019-05-10T03:08:52.488Z,27.32
2019-05-10T03:10:29.709Z,29.30
2019-05-10T03:12:24.823Z,27.50
2019-05-10T03:14:02.599Z,26.57
2019-05-10T03:15:37.428Z,27.48
2019-05-10T03:17:14.010Z,27.13
2019-05-10T03:18:53.768Z,27.07
2019-05-10T03:20:28.504Z,27.32
2019-05-10T03:22:08.832Z,27.02
2019-05-10T03:23:43.176Z,28.55
2019-05-10T03:25:17.574Z,34.55
2019-05-10T03:26:51.984Z,29.67
2019-05-10T03:28:26.428Z,27.25
2019-05-10T03:30:00.654Z,24.65
2019-05-10T03:31:35.151Z,27.80
2019-05-10T03:33:09.974Z,31.45
2019-05-10T03:34:44.501Z,29.25
2019-05-10T03:36:18.716Z,35.50
2019-05-10T03:37:53.468Z,27.67
2019-05-10T03:39:28.534Z,32.30
2019-05-10T03:41:03.016Z,29.35
2019-05-10T03:42:37.389Z,27.00
2019-05-10T03:44:11.771Z,27.60
2019-05-10T03:45:46.290Z,26.12
2019-05-10T03:47:20.816Z,24.37
2019-05-10T03:48:55.066Z,29.12
2019-05-10T03:50:29.469Z,28.17
2019-05-10T03:52:03.947Z,25.05
2019-05-10T03:53:38.388Z,22.67
2019-05-10T03:55:12.678Z,25.50
2019-05-10T03:56:47.080Z,23.87
2019-05-10T03:58:21.498Z,24.47
2019-05-10T03:59:55.978Z,25.23
2019-05-10T04:01:30.213Z,24.63
2019-05-10T04:03:04.689Z,26.73
2019-05-10T04:04:39.336Z,25.70
2019-05-10T04:06:13.811Z,23.02
2019-05-10T04:07:48.052Z,24.52
2019-05-10T04:09:22.454Z,24.90
2019-05-10T04:10:57.154Z,23.92
2019-05-10T04:12:31.548Z,23.47
2019-05-10T04:14:05.829Z,22.22
2019-05-10T04:15:40.297Z,22.35
2019-05-10T04:17:14.867Z,23.87
2019-05-10T04:18:49.277Z,24.52
2019-05-10T04:20:24.304Z,24.45
2019-05-10T04:22:00.321Z,25.30
2019-05-10T04:23:35.081Z,26.80
2019-05-10T04:25:09.693Z,22.27
2019-05-10T04:26:43.905Z,24.57
2019-05-10T04:28:18.309Z,24.72
2019-05-10T04:29:53.029Z,22.40
2019-05-10T04:31:27.434Z,25.57
2019-05-10T04:33:01.657Z,26.30
2019-05-10T04:34:36.130Z,25.77
2019-05-10T04:36:12.673Z,24.92
2019-05-10T04:37:47.061Z,26.17
2019-05-10T04:39:21.277Z,23.25
2019-05-10T04:40:55.696Z,22.25
2019-05-10T04:42:30.489Z,22.15
2019-05-10T04:44:05.925Z,22.32
2019-05-10T04:45:40.149Z,19.80
2019-05-10T04:47:14.557Z,20.88
2019-05-10T04:48:49.168Z,20.72
2019-05-10T04:50:23.656Z,23.95
2019-05-10T04:51:57.904Z,19.62
2019-05-10T04:53:32.352Z,20.60
2019-05-10T04:55:08.250Z,22.15
2019-05-10T04:56:42.661Z,18.15
2019-05-10T04:58:16.929Z,19.20
2019-05-10T04:59:51.457Z,17.62
2019-05-10T05:01:25.812Z,18.12
2019-05-10T05:03:00.347Z,18.37
2019-05-10T05:04:34.545Z,18.92
2019-05-10T05:06:09.072Z,18.67
2019-05-10T05:07:43.769Z,17.32
2019-05-10T05:09:18.245Z,18.62
2019-05-10T05:10:52.503Z,17.70
2019-05-10T05:12:26.981Z,17.40
2019-05-10T05:14:01.356Z,15.95
2019-05-10T05:15:35.777Z,13.83
2019-05-10T05:17:10.000Z,15.10
2019-05-10T05:18:44.462Z,13.05
2019-05-10T05:20:18.967Z,14.38
2019-05-10T05:21:53.388Z,14.55
2019-05-10T05:23:27.605Z,16.87
2019-05-10T05:25:03.806Z,15.13
2019-05-10T05:26:38.464Z,12.58
2019-05-10T05:28:12.984Z,12.88
2019-05-10T05:29:47.376Z,12.70
2019-05-10T05:31:21.835Z,13.45
2019-05-10T05:32:57.022Z,13.65
2019-05-10T05:34:31.537Z,13.72
2019-05-10T05:36:05.784Z,16.37
2019-05-10T05:37:40.245Z,16.48
2019-05-10T05:39:14.914Z,15.20
2019-05-10T05:40:49.316Z,14.03
2019-05-10T05:42:28.022Z,15.65
2019-05-10T05:43:59.751Z,18.30
2019-05-10T05:45:35.614Z,15.40
2019-05-10T05:47:10.317Z,17.17
2019-05-10T05:48:44.616Z,14.70
2019-05-10T05:50:19.280Z,12.70
2019-05-10T05:51:54.012Z,13.15
2019-05-10T05:53:28.417Z,18.67
2019-05-10T05:55:02.668Z,13.30
2019-05-10T05:56:37.057Z,17.05
2019-05-10T05:58:25.265Z,15.03
2019-05-10T05:59:49.203Z,14.25
2019-05-10T06:01:29.086Z,12.45
2019-05-10T06:02:59.756Z,13.43
2019-05-10T06:04:34.198Z,15.23
2019-05-10T06:06:21.810Z,13.50
2019-05-10T06:07:44.533Z,13.78
2019-05-10T06:09:18.972Z,14.70
2019-05-10T06:10:57.579Z,16.48
2019-05-10T06:12:29.701Z,15.88
2019-05-10T06:14:10.883Z,14.43
2019-05-10T06:15:41.490Z,13.90
2019-05-10T06:17:16.189Z,15.00
2019-05-10T06:18:50.644Z,15.32
2019-05-10T06:20:24.956Z,20.77
2019-05-10T06:22:04.398Z,16.48
2019-05-10T06:23:36.844Z,16.73
2019-05-10T06:25:11.693Z,16.45
2019-05-10T06:26:46.001Z,23.05
2019-05-10T06:28:28.779Z,16.77
2019-05-10T06:29:57.029Z,17.62
2019-05-10T06:31:31.447Z,15.28
2019-05-10T06:33:12.604Z,15.40
2019-05-10T06:34:41.884Z,19.73
2019-05-10T06:36:16.441Z,15.43
2019-05-10T06:37:50.861Z,14.18
2019-05-10T06:39:25.131Z,14.18
2019-05-10T06:40:59.553Z,11.00
2019-05-10T06:42:34.601Z,12.55
2019-05-10T06:44:10.201Z,13.40
2019-05-10T06:45:46.769Z,15.38
2019-05-10T06:47:21.975Z,18.60
2019-05-10T06:49:07.204Z,12.70
2019-05-10T06:50:32.793Z,11.10
2019-05-10T06:52:07.008Z,10.78
2019-05-10T06:53:48.837Z,9.85
2019-05-10T06:55:17.576Z,10.65
2019-05-10T06:56:51.964Z,11.38
2019-05-10T06:58:30.464Z,10.48
2019-05-10T07:00:06.448Z,10.25
2019-05-10T07:01:45.075Z,9.85
2019-05-10T07:03:14.606Z,8.15
2019-05-10T07:04:48.816Z,9.58
2019-05-10T07:06:23.234Z,10.65
2019-05-10T07:08:00.545Z,8.45
2019-05-10T07:10:00.325Z,5.83
2019-05-10T07:11:09.673Z,7.50
2019-05-10T07:12:45.466Z,8.80
2019-05-10T07:14:25.555Z,9.30
2019-05-10T07:15:56.296Z,10.68
2019-05-10T07:17:30.564Z,8.60
2019-05-10T07:19:04.966Z,7.25
2019-05-10T07:20:42.970Z,7.87
2019-05-10T07:22:21.733Z,4.10
2019-05-10T07:23:52.012Z,3.45
2019-05-10T07:25:26.481Z,5.40
2019-05-10T07:27:02.208Z,5.10
2019-05-10T07:28:37.136Z,3.42
2019-05-10T07:30:11.942Z,6.05
2019-05-10T07:31:46.340Z,5.33
2019-05-10T07:33:21.104Z,7.58
2019-05-10T07:35:00.417Z,5.55
2019-05-10T07:36:31.356Z,5.62
2019-05-10T07:38:05.753Z,5.65
2019-05-10T07:39:40.310Z,6.55
2019-05-10T07:41:19.362Z,4.97
2019-05-10T07:42:52.020Z,5.58
2019-05-10T08:32:37.899Z,5.33
2019-05-10T08:34:12.318Z,4.92
2019-05-10T08:35:46.812Z,5.47
2019-05-10T08:37:33.138Z,7.40
2019-05-10T08:39:07.732Z,9.58
2019-05-10T08:40:37.964Z,4.08
2019-05-10T08:42:29.338Z,3.37
2019-05-10T08:43:48.479Z,3.80
2019-05-10T08:45:23.036Z,4.47
2019-05-10T08:46:57.417Z,5.92
2019-05-10T08:48:33.047Z,5.35
2019-05-10T08:50:26.298Z,2.80
2019-05-10T08:51:49.145Z,3.08
2019-05-10T08:53:20.100Z,4.00
2019-05-10T08:54:55.364Z,3.25
2019-05-10T08:56:30.036Z,7.22
2019-05-10T08:58:04.478Z,7.40
2019-05-10T08:59:38.868Z,2.92
2019-05-10T09:01:25.869Z,3.65
2019-05-10T09:02:49.176Z,4.55
2019-05-10T09:04:23.967Z,4.28
2019-05-10T09:06:05.287Z,2.72
2019-05-10T09:07:38.856Z,3.20
2019-05-10T09:09:12.373Z,7.25
2019-05-10T09:10:46.545Z,6.05
2019-05-10T09:12:22.941Z,4.58
2019-05-10T09:13:57.807Z,5.33
2019-05-10T09:15:33.119Z,2.77
2019-05-10T09:17:07.930Z,3.42
2019-05-10T09:18:46.259Z,2.42
2019-05-10T09:20:26.222Z,6.25
2019-05-10T09:21:55.072Z,2.95
2019-05-10T09:23:29.836Z,4.17
2019-05-10T09:25:05.457Z,11.88
2019-05-10T09:26:41.717Z,9.45
2019-05-10T09:28:17.126Z,8.33
2019-05-10T09:29:53.002Z,6.97
2019-05-10T09:31:28.625Z,6.50
2019-05-10T09:33:08.654Z,6.55
2019-05-10T09:34:38.904Z,7.45
2019-05-10T09:36:13.301Z,8.58
2019-05-10T09:37:52.886Z,10.58
2019-05-10T09:39:25.226Z,6.47
2019-05-10T09:41:02.271Z,9.93
2019-05-10T09:42:40.022Z,5.75
2019-05-10T09:44:13.058Z,6.65
2019-05-10T09:45:47.805Z,6.45
2019-05-10T09:47:22.298Z,3.05
2019-05-10T09:49:06.130Z,2.45
2019-05-10T09:50:41.162Z,3.22
2019-05-10T09:52:12.821Z,4.47
2019-05-10T09:53:48.329Z,3.08
2019-05-10T09:55:21.753Z,2.00
2019-05-10T09:56:57.535Z,4.12
2019-05-10T09:58:32.213Z,3.87
2019-05-10T10:00:07.928Z,2.98
2019-05-10T10:01:42.687Z,2.83
2019-05-10T10:03:17.076Z,3.40
2019-05-10T10:04:51.301Z,1.77
2019-05-10T10:06:29.549Z,5.20
2019-05-10T10:08:03.592Z,3.17
2019-05-10T10:09:44.527Z,7.47
2019-05-10T10:11:15.712Z,5.08
2019-05-10T10:12:49.985Z,3.85
2019-05-10T10:14:24.645Z,1.65
2019-05-10T10:16:03.915Z,3.95
2019-05-10T10:17:40.177Z,1.40
2019-05-10T10:19:11.350Z,1.37
2019-05-10T10:20:47.899Z,1.77
2019-05-10T10:22:21.920Z,3.58
2019-05-10T10:24:00.040Z,1.30
2019-05-10T10:25:35.099Z,0.90
2019-05-10T10:27:08.965Z,2.27
2019-05-10T10:28:43.394Z,1.80
2019-05-10T10:30:21.087Z,3.60
2019-05-10T10:31:58.304Z,2.25
2019-05-10T10:33:30.211Z,2.77
2019-05-10T10:35:07.635Z,4.83
2019-05-10T10:36:43.986Z,3.72
2019-05-10T10:38:17.899Z,1.77
2019-05-10T10:39:54.469Z,2.02
2019-05-10T10:41:31.693Z,1.90
2019-05-10T10:43:07.262Z,1.32
2019-05-10T10:44:41.155Z,2.85
2019-05-10T10:46:17.698Z,1.17
2019-05-10T10:47:51.853Z,4.12
2019-05-10T10:49:28.059Z,3.77
2019-05-10T10:51:02.720Z,1.20
2019-05-10T10:52:37.608Z,2.15
2019-05-10T10:54:12.213Z,1.70
2019-05-10T10:55:54.157Z,2.35
2019-05-10T10:57:22.636Z,2.95
2019-05-10T10:58:58.063Z,2.83
2019-05-10T11:00:38.412Z,3.37
2019-05-10T11:03:49.051Z,0.70
2019-05-10T11:05:23.650Z,1.80
2019-05-10T11:07:09.966Z,3.42
2019-05-10T11:08:34.849Z,2.77
2019-05-10T11:10:17.861Z,5.08
2019-05-10T11:11:46.035Z,8.38
2019-05-10T11:13:40.155Z,5.15
2019-05-10T11:14:56.422Z,5.92
2019-05-10T11:16:30.815Z,2.80
2019-05-10T11:18:07.048Z,4.58
2019-05-10T11:19:41.794Z,1.65
2019-05-10T11:21:16.552Z,4.08
2019-05-10T11:22:53.342Z,1.92
2019-05-10T11:24:27.075Z,2.58
2019-05-10T11:26:01.543Z,2.83
2019-05-10T11:27:35.706Z,6.30
2019-05-10T11:29:13.972Z,7.05
2019-05-10T11:30:47.801Z,4.37
2019-05-10T11:32:22.232Z,3.77
2019-05-10T11:33:58.728Z,1.05
2019-05-10T11:35:34.668Z,2.70
2019-05-10T11:37:09.140Z,5.42
2019-05-10T11:38:46.941Z,3.98
2019-05-10T11:40:30.337Z,2.58
2019-05-10T11:42:02.046Z,2.65
2019-05-10T11:43:32.423Z,1.47
2019-05-10T11:45:11.093Z,3.55
2019-05-10T11:46:45.504Z,5.00
2019-05-10T11:48:21.591Z,4.50
2019-05-10T11:49:56.340Z,6.20
2019-05-10T11:51:31.704Z,1.80
2019-05-10T11:53:13.243Z,3.42
2019-05-10T11:54:42.449Z,4.37
2019-05-10T11:56:16.940Z,6.47
2019-05-10T11:58:01.928Z,2.20
2019-05-10T11:59:33.773Z,2.55
2019-05-10T12:01:14.811Z,1.92
2019-05-10T12:06:04.386Z,2.70
2019-05-10T12:07:40.685Z,2.98
2019-05-10T12:09:12.349Z,2.10
2019-05-10T12:10:53.046Z,1.12
2019-05-10T12:12:29.688Z,7.03
2019-05-10T12:13:58.117Z,1.52
2019-05-10T12:15:32.669Z,2.92
2019-05-10T12:17:07.041Z,2.85
2019-05-10T12:18:50.264Z,2.72
2019-05-10T12:20:17.317Z,4.00
2019-05-10T12:21:55.579Z,2.95
2019-05-10T12:23:31.309Z,3.80
2019-05-10T12:25:23.321Z,4.60
2019-05-10T12:26:06.157Z,2.80
2019-05-10T12:26:49.987Z,4.05
2019-05-10T12:27:13.978Z,3.02
2019-05-10T12:28:23.993Z,3.58
2019-05-10T12:29:59.593Z,3.80
2019-05-10T12:31:31.121Z,4.03
2019-05-10T12:33:09.430Z,3.70
2019-05-10T12:34:46.055Z,1.30
2019-05-10T12:36:23.776Z,3.55
2019-05-10T12:37:54.426Z,1.65
2019-05-10T12:39:30.979Z,1.82
2019-05-10T12:41:05.626Z,2.47
2019-05-10T12:42:41.736Z,1.82
2019-05-10T12:44:16.341Z,4.03
2019-05-10T12:45:51.771Z,3.87
2019-05-10T12:47:26.816Z,5.45
2019-05-10T12:49:02.174Z,5.05
2019-05-10T12:50:37.120Z,7.35
2019-05-10T12:52:14.147Z,7.17
2019-05-10T12:53:49.154Z,5.55
2019-05-10T12:55:23.746Z,3.75
2019-05-10T12:56:58.010Z,6.15
2019-05-10T12:58:32.481Z,5.22
2019-05-10T13:00:13.349Z,3.55
2019-05-10T13:01:44.179Z,2.65
2019-05-10T13:03:19.613Z,2.52
2019-05-10T13:04:54.556Z,3.12
2019-05-10T13:06:29.103Z,3.80
2019-05-10T13:08:03.525Z,3.47
2019-05-10T13:09:40.758Z,3.83
2019-05-10T13:11:18.865Z,4.25
2019-05-10T13:12:50.287Z,3.72
2019-05-10T13:14:24.716Z,3.70
2019-05-10T13:16:03.693Z,3.30
2019-05-10T13:17:37.303Z,3.35
2019-05-10T13:19:14.063Z,6.85
2019-05-10T13:20:47.912Z,5.00
2019-05-10T13:22:22.118Z,5.30
2019-05-10T13:23:56.501Z,3.45
2019-05-10T13:25:30.958Z,13.03
2019-05-10T13:27:05.500Z,6.12
2019-05-10T13:28:40.684Z,6.75
2019-05-10T13:30:15.448Z,3.80
2019-05-10T13:31:50.259Z,2.72
2019-05-10T13:33:29.273Z,2.37
2019-05-10T13:35:02.078Z,3.17
2019-05-10T13:36:37.414Z,2.98
2019-05-10T13:38:12.723Z,2.95
2019-05-10T13:39:47.115Z,4.83
2019-05-10T13:41:24.030Z,2.72
2019-05-10T13:42:59.137Z,3.37
2019-05-10T13:44:36.940Z,2.42
2019-05-10T13:46:11.507Z,4.28
2019-05-10T13:47:45.833Z,4.40
2019-05-10T13:49:20.236Z,3.00
2019-05-10T13:50:54.790Z,4.62
2019-05-10T13:52:37.228Z,2.25
2019-05-10T13:54:05.507Z,4.08
2019-05-10T13:55:40.073Z,2.95
2019-05-10T13:57:14.615Z,2.55
2019-05-10T13:58:49.004Z,3.77
2019-05-10T14:00:33.021Z,2.80
2019-05-10T14:01:59.668Z,4.80
2019-05-10T14:03:43.693Z,6.53
2019-05-10T14:05:11.839Z,6.95
2019-05-10T14:06:46.251Z,4.50
2019-05-10T14:08:20.668Z,3.02
2019-05-10T14:09:56.970Z,3.33
2019-05-10T14:11:34.230Z,2.75
2019-05-10T14:13:07.304Z,2.92
2019-05-10T14:14:41.707Z,6.00
2019-05-10T14:16:19.901Z,10.45
2019-05-10T14:17:53.861Z,2.58
2019-05-10T14:19:28.215Z,3.17
2019-05-10T14:21:02.602Z,3.77
2019-05-10T14:22:37.028Z,3.08
2019-05-10T14:24:15.131Z,1.92
2019-05-10T14:25:47.400Z,2.95
2019-05-10T14:27:21.833Z,2.60
2019-05-10T14:28:56.216Z,11.73
2019-05-10T14:30:30.651Z,16.95
2019-05-10T14:32:05.329Z,8.43
2019-05-10T14:33:39.724Z,3.70
2019-05-10T14:35:16.395Z,7.35
2019-05-10T14:36:50.774Z,5.85
2019-05-10T14:38:24.981Z,4.75
2019-05-10T14:40:00.820Z,3.52
2019-05-10T14:41:35.266Z,2.75
2019-05-10T14:43:09.703Z,4.05
2019-05-10T14:44:43.919Z,3.20
2019-05-10T14:46:18.310Z,2.00
2019-05-10T14:47:52.820Z,4.45
2019-05-10T14:49:27.252Z,5.58
2019-05-10T14:51:02.859Z,4.92
2019-05-10T14:52:37.665Z,2.77
2019-05-10T14:54:12.113Z,4.50
2019-05-10T14:55:46.546Z,2.80
2019-05-10T14:57:20.757Z,2.12
2019-05-10T14:58:55.162Z,7.65
2019-05-10T15:00:29.657Z,3.30
2019-05-10T15:02:04.101Z,3.87
2019-05-10T15:03:45.641Z,3.15
2019-05-10T15:05:18.034Z,3.27
2019-05-10T15:06:51.888Z,2.72
2019-05-10T15:08:27.845Z,3.33
2019-05-10T15:10:02.502Z,2.42
2019-05-10T15:11:37.706Z,2.40
2019-05-10T15:13:12.348Z,2.22
2019-05-10T15:14:46.725Z,2.40
2019-05-10T15:16:27.657Z,4.37
2019-05-10T15:18:01.923Z,2.85
2019-05-10T15:19:33.171Z,2.20
2019-05-10T15:21:07.637Z,2.50
2019-05-10T15:22:41.880Z,3.45
2019-05-10T15:24:16.280Z,2.67
2019-05-10T15:25:57.271Z,3.17
2019-05-10T15:27:26.912Z,4.00
2019-05-10T15:29:01.172Z,2.08
2019-05-10T15:30:39.254Z,2.02
2019-05-10T15:32:11.856Z,2.37
2019-05-10T15:33:46.260Z,4.25
2019-05-10T15:35:20.504Z,2.52
2019-05-10T15:36:54.900Z,3.60
2019-05-10T15:38:29.489Z,4.33
2019-05-10T15:40:06.566Z,3.02
2019-05-10T15:41:41.511Z,2.98
2019-05-10T15:43:17.232Z,3.60
2019-05-10T15:44:52.181Z,4.80
2019-05-10T15:46:35.290Z,2.30
2019-05-10T15:48:05.924Z,3.47
2019-05-10T15:49:40.331Z,4.95
2019-05-10T15:51:16.759Z,6.85
2019-05-10T15:52:51.395Z,4.33
2019-05-10T15:54:25.595Z,5.15
2019-05-10T15:56:03.835Z,2.85
2019-05-10T15:57:36.086Z,4.10
2019-05-10T15:59:12.749Z,3.05
2019-05-10T16:00:46.351Z,6.12
2019-05-10T16:02:20.788Z,2.45
2019-05-10T16:03:55.429Z,3.33
2019-05-10T16:05:43.143Z,4.70
2019-05-10T16:07:09.437Z,4.75
2019-05-10T16:08:41.946Z,5.17
2019-05-10T16:10:17.917Z,3.05
2019-05-10T16:11:55.941Z,4.40
2019-05-10T16:13:28.192Z,3.75
2019-05-10T16:15:02.660Z,6.50
2019-05-10T16:16:39.543Z,8.38
2019-05-10T16:18:13.017Z,5.62
2019-05-10T16:19:50.947Z,7.90
2019-05-10T16:21:23.357Z,7.20
2019-05-10T16:23:02.853Z,7.58
2019-05-10T16:24:33.797Z,4.17
2019-05-10T16:26:08.049Z,5.60
2019-05-10T16:27:44.996Z,4.65
2019-05-10T16:29:18.696Z,3.15
2019-05-10T16:30:53.088Z,3.92
2019-05-10T16:32:29.374Z,107.17
2019-05-10T16:34:03.609Z,22.50
2019-05-10T16:35:39.195Z,22.07
2019-05-10T16:37:13.983Z,14.33
2019-05-10T16:38:48.229Z,9.70
2019-05-10T16:40:22.621Z,11.10
2019-05-10T16:41:57.179Z,5.37
2019-05-10T16:43:31.569Z,5.85
2019-05-10T16:45:06.617Z,5.05
2019-05-10T16:46:41.009Z,6.37
2019-05-10T16:48:15.377Z,6.08
2019-05-10T16:49:53.286Z,6.87
2019-05-10T16:51:25.677Z,7.53
2019-05-10T16:53:05.761Z,22.07
2019-05-10T16:54:37.803Z,7.00
2019-05-10T16:56:13.249Z,6.60
2019-05-10T16:57:48.208Z,4.55
2019-05-10T16:59:24.339Z,5.17
2019-05-10T17:00:58.840Z,6.53
2019-05-10T17:02:36.588Z,5.97
2019-05-10T17:04:09.484Z,5.67
2019-05-10T17:05:52.964Z,5.17
2019-05-10T17:07:20.682Z,6.35
2019-05-10T17:08:55.077Z,5.37
2019-05-10T17:10:32.848Z,7.37
2019-05-10T17:12:05.370Z,7.75
2019-05-10T17:13:41.587Z,9.73
2019-05-10T17:15:15.931Z,6.55
2019-05-10T17:16:58.561Z,9.95
2019-05-10T17:18:26.201Z,7.85
2019-05-10T17:20:00.910Z,5.92
2019-05-10T17:21:35.318Z,6.78
2019-05-10T17:23:11.276Z,5.95
2019-05-10T17:24:45.570Z,7.25
2019-05-10T17:26:20.104Z,9.90
2019-05-10T17:27:57.570Z,9.98
2019-05-10T17:29:31.688Z,8.40
2019-05-10T17:31:07.587Z,8.15
2019-05-10T17:32:43.593Z,7.10
2019-05-10T17:34:27.677Z,13.30
2019-05-10T17:36:07.452Z,13.58
2019-05-10T17:37:35.612Z,10.10
2019-05-10T17:39:07.087Z,8.73
2019-05-10T17:40:42.193Z,7.08
2019-05-10T17:42:17.420Z,11.95
2019-05-10T17:43:51.813Z,8.13
2019-05-10T17:45:26.386Z,8.45
2019-05-10T17:47:00.797Z,16.30
2019-05-10T17:48:35.108Z,35.40
2019-05-10T17:50:09.830Z,43.30
2019-05-10T17:51:44.571Z,18.27
2019-05-10T17:53:24.481Z,21.10
2019-05-10T17:55:00.525Z,26.52
2019-05-10T17:56:38.821Z,28.35
2019-05-10T17:58:11.212Z,26.80
2019-05-10T17:59:46.954Z,31.02
2019-05-10T18:01:21.528Z,26.73
2019-05-10T18:02:55.932Z,28.27
2019-05-10T18:04:30.398Z,22.32
2019-05-10T18:06:05.666Z,20.17
2019-05-10T18:07:39.904Z,18.50
2019-05-10T18:09:14.401Z,30.08
2019-05-10T18:10:48.748Z,55.92
2019-05-10T18:12:26.905Z,45.40
2019-05-10T18:13:59.065Z,46.40
2019-05-10T18:15:34.542Z,39.88
2019-05-10T18:17:09.183Z,38.58
2019-05-10T18:18:47.163Z,52.88
2019-05-10T18:20:19.700Z,29.48
2019-05-10T18:21:54.873Z,49.18
2019-05-10T18:23:30.188Z,53.55
2019-05-10T18:25:05.471Z,29.52
2019-05-10T18:26:41.160Z,36.33
2019-05-10T18:28:19.158Z,27.85
2019-05-10T18:29:51.876Z,29.50
2019-05-10T18:31:27.102Z,21.12
2019-05-10T18:33:01.337Z,18.98
2019-05-10T18:34:37.377Z,16.60
2019-05-10T18:36:12.824Z,18.55
2019-05-10T18:37:47.291Z,12.03
2019-05-10T18:39:21.509Z,10.10
2019-05-10T18:40:56.639Z,13.80
2019-05-10T18:42:31.273Z,14.33
2019-05-10T18:44:05.829Z,9.58
2019-05-10T18:45:40.041Z,9.05
2019-05-10T18:47:14.514Z,9.15
2019-05-10T18:48:50.525Z,10.05
2019-05-10T18:50:24.958Z,10.03
2019-05-10T18:52:04.657Z,9.98
2019-05-10T18:53:35.342Z,8.50
2019-05-10T18:55:10.409Z,9.55
2019-05-10T18:56:44.940Z,12.95
2019-05-10T18:58:23.278Z,14.90
2019-05-10T18:59:55.436Z,20.68
2019-05-10T19:01:32.966Z,12.90
2019-05-10T19:03:05.849Z,11.65
2019-05-10T19:04:40.100Z,17.10
2019-05-10T19:06:14.544Z,18.57
2019-05-10T19:08:02.595Z,45.50
2019-05-10T19:09:25.040Z,48.05
2019-05-10T19:10:59.261Z,42.90
2019-05-10T19:12:34.070Z,40.33
2019-05-10T19:14:10.433Z,32.80
2019-05-10T19:15:46.233Z,36.90
2019-05-10T19:17:20.739Z,37.23
2019-05-10T19:18:56.012Z,34.73
2019-05-10T19:20:31.238Z,37.10
2019-05-10T19:22:08.871Z,25.40
2019-05-10T19:23:41.532Z,21.87
2019-05-10T19:25:15.953Z,13.75
2019-05-10T19:26:50.624Z,14.13
2019-05-10T19:28:26.852Z,15.03
2019-05-10T19:30:00.945Z,8.43
2019-05-10T19:31:38.072Z,6.22
2019-05-10T19:33:12.057Z,6.30
2019-05-10T19:34:48.460Z,6.60
2019-05-10T19:36:22.386Z,11.53
2019-05-10T19:37:58.640Z,4.70
2019-05-10T19:39:33.097Z,5.42
2019-05-10T19:41:07.605Z,5.25
2019-05-10T19:42:42.959Z,8.03
2019-05-10T19:44:17.933Z,6.85
2019-05-10T19:45:57.400Z,11.18
2019-05-10T19:47:28.524Z,15.43
2019-05-10T19:49:07.692Z,13.53
2019-05-10T19:50:38.885Z,12.00
2019-05-10T19:52:13.312Z,10.40
2019-05-10T19:53:47.718Z,9.75
2019-05-10T19:55:22.021Z,11.68
2019-05-10T19:56:56.501Z,7.37
2019-05-10T19:58:32.134Z,13.48
2019-05-10T20:00:12.413Z,7.85
2019-05-10T20:01:46.626Z,12.93
2019-05-10T20:03:21.025Z,17.67
2019-05-10T20:04:55.685Z,10.93
2019-05-10T20:06:30.085Z,16.65
2019-05-10T20:08:04.408Z,9.78
2019-05-10T20:09:38.805Z,6.95
2019-05-10T20:11:13.349Z,8.78
2019-05-10T20:12:49.223Z,8.20
2019-05-10T20:14:23.454Z,6.92
2019-05-10T20:16:01.087Z,8.23
2019-05-10T20:17:34.592Z,7.55
2019-05-10T20:19:11.753Z,19.80
2019-05-10T20:20:46.374Z,32.58
2019-05-10T20:22:20.840Z,23.62
2019-05-10T20:23:55.506Z,27.37
2019-05-10T20:25:29.921Z,24.67
2019-05-10T20:27:04.152Z,23.98
2019-05-10T20:28:39.231Z,21.45
2019-05-10T20:30:14.392Z,22.82
2019-05-10T20:31:48.817Z,18.85
2019-05-10T20:33:23.093Z,12.33
2019-05-10T20:34:57.605Z,12.47
2019-05-10T20:36:33.801Z,12.95
2019-05-10T20:38:08.436Z,10.40
2019-05-10T20:39:42.659Z,11.22
2019-05-10T20:41:17.116Z,11.45
2019-05-10T20:42:51.657Z,10.48
2019-05-10T20:44:26.090Z,10.98
2019-05-10T20:46:00.391Z,11.22
2019-05-10T20:47:34.801Z,11.80
2019-05-10T20:49:09.294Z,11.00
2019-05-10T20:50:45.500Z,14.40
2019-05-10T20:52:21.219Z,14.43
2019-05-10T20:53:55.580Z,9.25
2019-05-10T20:55:30.239Z,9.40
2019-05-10T20:57:04.690Z,18.10
2019-05-10T20:58:39.203Z,11.38
2019-05-10T21:00:13.777Z,13.58
2019-05-10T21:01:48.302Z,11.83
2019-05-10T21:03:23.749Z,12.58
2019-05-10T21:04:59.259Z,10.08
2019-05-10T21:06:36.251Z,10.82
2019-05-10T21:08:16.877Z,10.05
2019-05-10T21:09:47.419Z,10.25
2019-05-10T21:11:21.624Z,12.20
2019-05-10T21:12:57.543Z,9.65
2019-05-10T21:14:32.112Z,9.78
2019-05-10T21:16:07.916Z,12.33
2019-05-10T21:17:42.123Z,9.95
2019-05-10T21:19:19.972Z,9.05
2019-05-10T21:20:54.778Z,9.83
2019-05-10T21:22:30.640Z,10.85
2019-05-10T21:24:04.824Z,8.63
2019-05-10T21:25:39.214Z,9.70
2019-05-10T21:27:13.648Z,14.15
2019-05-10T21:28:49.296Z,10.85
2019-05-10T21:30:23.501Z,9.88
2019-05-10T21:31:57.911Z,10.03
2019-05-10T21:33:32.269Z,13.28
2019-05-10T21:35:06.969Z,16.85
2019-05-10T21:36:41.256Z,14.38